createdAt,value
2018-11-07T00:00:53.837Z,40.28
2018-11-07T00:03:22.272Z,37.23
2018-11-07T00:05:50.700Z,40.77
2018-11-07T00:08:19.838Z,37.07
2018-11-07T00:10:48.158Z,37.70
2018-11-07T00:13:16.585Z,35.08
2018-11-07T00:15:45.429Z,36.00
2018-11-07T00:18:13.820Z,34.67
2018-11-07T00:20:43.022Z,34.50
2018-11-07T00:23:11.704Z,33.50
2018-11-07T00:25:40.084Z,34.80
2018-11-07T00:28:08.520Z,34.40
2018-11-07T00:30:36.984Z,33.35
2018-11-07T00:33:06.047Z,34.07
2018-11-07T00:35:34.664Z,34.80
2018-11-07T00:38:04.018Z,34.73
2018-11-07T00:40:33.927Z,36.07
2018-11-07T00:43:02.370Z,34.53
2018-11-07T00:45:30.762Z,34.77
2018-11-07T00:47:59.252Z,33.10
2018-11-07T00:50:27.678Z,33.35
2018-11-07T00:52:56.117Z,36.53
2018-11-07T00:55:24.606Z,35.70
2018-11-07T00:57:53.401Z,35.10
2018-11-07T01:00:22.248Z,35.50
2018-11-07T01:02:50.932Z,37.45
2018-11-07T01:05:19.434Z,33.40
2018-11-07T01:07:48.661Z,35.77
2018-11-07T01:10:17.144Z,33.33
2018-11-07T01:12:45.834Z,35.17
2018-11-07T01:15:14.410Z,35.17
2018-11-07T01:17:43.524Z,32.70
2018-11-07T01:20:13.345Z,35.23
2018-11-07T01:22:41.752Z,33.53
2018-11-07T01:25:10.807Z,34.13
2018-11-07T01:27:39.251Z,34.50
2018-11-07T01:30:09.333Z,35.63
2018-11-07T01:32:37.866Z,35.30
2018-11-07T01:35:06.490Z,36.20
2018-11-07T01:37:35.998Z,34.67
2018-11-07T01:40:06.222Z,35.00
2018-11-07T01:42:34.980Z,34.70
2018-11-07T01:45:03.927Z,35.30
2018-11-07T01:47:33.451Z,35.87
2018-11-07T01:50:02.634Z,33.77
2018-11-07T01:52:31.554Z,35.30
2018-11-07T01:55:00.393Z,32.27
2018-11-07T01:57:29.051Z,33.40
2018-11-07T01:59:57.776Z,32.38
2018-11-07T02:02:26.299Z,32.17
2018-11-07T02:04:54.999Z,33.00
2018-11-07T02:07:23.577Z,31.10
2018-11-07T02:09:52.345Z,31.67
2018-11-07T02:12:20.852Z,35.30
2018-11-07T02:14:49.253Z,33.13
2018-11-07T02:17:17.904Z,35.50
2018-11-07T02:19:46.382Z,33.20
2018-11-07T02:22:15.883Z,29.93
2018-11-07T02:24:44.400Z,33.70
2018-11-07T02:27:12.821Z,29.53
2018-11-07T02:29:41.276Z,33.37
2018-11-07T02:32:09.682Z,29.00
2018-11-07T02:34:38.582Z,27.53
2018-11-07T02:37:07.405Z,30.10
2018-11-07T02:39:35.963Z,24.92
2018-11-07T02:42:04.825Z,30.00
2018-11-07T02:44:33.696Z,25.70
2018-11-07T02:47:02.309Z,26.30
2018-11-07T02:49:31.063Z,27.43
2018-11-07T02:51:59.451Z,25.30
2018-11-07T02:54:28.724Z,24.47
2018-11-07T02:56:57.508Z,21.87
2018-11-07T02:59:25.939Z,22.33
2018-11-07T03:01:54.638Z,25.12
2018-11-07T03:04:23.063Z,23.38
2018-11-07T03:06:51.645Z,22.62
2018-11-07T03:09:20.229Z,20.87
2018-11-07T03:11:48.895Z,21.83
2018-11-07T03:14:17.540Z,22.50
2018-11-07T03:16:46.043Z,20.83
2018-11-07T03:19:15.030Z,21.10
2018-11-07T03:21:43.444Z,21.85
2018-11-07T03:24:12.238Z,24.07
2018-11-07T03:26:40.869Z,24.07
2018-11-07T03:29:09.322Z,25.63
2018-11-07T03:31:38.157Z,24.80
2018-11-07T03:34:06.882Z,24.77
2018-11-07T03:36:35.585Z,24.37
2018-11-07T03:39:06.271Z,23.40
2018-11-07T03:41:34.711Z,24.63
2018-11-07T03:44:03.146Z,21.40
2018-11-07T03:46:31.600Z,21.95
2018-11-07T03:49:00.096Z,23.53
2018-11-07T03:51:29.250Z,22.57
2018-11-07T03:53:57.742Z,21.90
2018-11-07T03:56:26.177Z,23.40
2018-11-07T03:58:55.173Z,22.87
2018-11-07T04:01:23.719Z,21.65
2018-11-07T04:03:52.557Z,21.40
2018-11-07T04:06:20.961Z,19.57
2018-11-07T04:08:49.515Z,19.05
2018-11-07T04:11:17.919Z,20.47
2018-11-07T04:13:46.429Z,22.50
2018-11-07T04:16:14.859Z,20.17
2018-11-07T04:18:43.272Z,22.93
2018-11-07T04:21:11.695Z,20.73
2018-11-07T04:23:40.159Z,21.13
2018-11-07T04:26:08.748Z,20.60
2018-11-07T04:28:37.246Z,22.70
2018-11-07T04:31:05.736Z,22.17
2018-11-07T04:33:34.272Z,20.90
2018-11-07T04:36:02.728Z,20.30
2018-11-07T04:38:31.217Z,22.17
2018-11-07T04:40:59.612Z,20.82
2018-11-07T04:43:28.009Z,22.48
2018-11-07T04:45:56.396Z,23.73
2018-11-07T04:48:25.031Z,24.13
2018-11-07T04:50:54.261Z,26.20
2018-11-07T04:53:23.745Z,24.60
2018-11-07T04:55:52.513Z,21.97
2018-11-07T04:58:21.249Z,23.57
2018-11-07T05:00:50.283Z,21.27
2018-11-07T05:03:19.429Z,20.75
2018-11-07T05:05:48.331Z,21.42
2018-11-07T05:08:16.823Z,19.62
2018-11-07T05:10:46.835Z,21.12
2018-11-07T05:13:15.610Z,18.87
2018-11-07T05:15:44.604Z,20.10
2018-11-07T05:18:13.301Z,18.77
2018-11-07T05:20:41.676Z,21.00
2018-11-07T05:23:10.292Z,21.80
2018-11-07T05:25:39.077Z,24.23
2018-11-07T05:28:07.503Z,22.67
2018-11-07T05:30:37.485Z,20.35
2018-11-07T05:33:05.939Z,21.87
2018-11-07T05:35:35.226Z,23.60
2018-11-07T05:38:04.032Z,23.65
2018-11-07T05:40:33.623Z,22.60
2018-11-07T05:43:02.334Z,21.70
2018-11-07T05:45:30.964Z,20.27
2018-11-07T05:47:59.584Z,20.67
2018-11-07T05:50:28.435Z,21.70
2018-11-07T05:52:57.242Z,21.75
2018-11-07T05:55:26.390Z,20.48
2018-11-07T05:57:54.843Z,22.37
2018-11-07T06:00:25.069Z,21.57
2018-11-07T06:02:54.227Z,20.88
2018-11-07T06:05:22.971Z,21.73
2018-11-07T06:07:51.439Z,22.43
2018-11-07T06:10:19.895Z,20.50
2018-11-07T06:12:48.350Z,25.70
2018-11-07T06:15:18.731Z,21.43
2018-11-07T06:17:47.642Z,22.87
2018-11-07T06:20:16.383Z,20.60
2018-11-07T06:22:44.864Z,18.27
2018-11-07T06:25:23.316Z,19.60
2018-11-07T06:28:06.460Z,19.60
2018-11-07T06:30:35.940Z,19.20
2018-11-07T06:33:06.437Z,17.85
2018-11-07T06:36:09.468Z,16.80
2018-11-07T06:38:41.134Z,16.73
2018-11-07T06:41:20.169Z,15.83
2018-11-07T06:43:59.810Z,15.80
2018-11-07T06:46:55.262Z,16.97
2018-11-07T06:49:40.833Z,16.40
2018-11-07T06:58:06.149Z,18.37
2018-11-07T07:00:36.363Z,20.50
2018-11-07T07:03:06.679Z,18.93
2018-11-07T07:05:35.224Z,19.03
2018-11-07T07:08:03.701Z,16.77
2018-11-07T07:10:32.089Z,15.57
2018-11-07T07:13:00.532Z,16.77
2018-11-07T07:15:28.887Z,18.13
2018-11-07T07:17:57.543Z,17.90
2018-11-07T07:20:26.130Z,22.00
2018-11-07T07:22:54.818Z,19.50
2018-11-07T07:25:23.256Z,19.98
2018-11-07T07:27:51.833Z,19.40
2018-11-07T07:30:21.355Z,17.67
2018-11-07T07:32:50.097Z,18.37
2018-11-07T07:35:18.544Z,16.20
2018-11-07T07:37:47.199Z,16.50
2018-11-07T07:40:16.544Z,15.75
2018-11-07T07:42:45.561Z,16.97
2018-11-07T07:45:16.824Z,15.90
2018-11-07T07:47:45.903Z,16.63
2018-11-07T07:50:15.954Z,16.73
2018-11-07T07:52:44.999Z,17.10
2018-11-07T07:55:13.864Z,16.23
2018-11-07T07:57:43.132Z,17.45
2018-11-07T08:00:14.411Z,16.50
2018-11-07T08:02:44.783Z,17.10
2018-11-07T08:05:13.345Z,18.90
2018-11-07T08:07:43.400Z,18.57
2018-11-07T08:10:17.250Z,19.93
2018-11-07T08:12:46.340Z,20.25
2018-11-07T08:15:15.507Z,25.87
2018-11-07T08:17:45.175Z,23.70
2018-11-07T08:20:14.761Z,22.37
2018-11-07T08:22:44.056Z,19.60
2018-11-07T08:25:12.591Z,19.82
2018-11-07T08:27:41.182Z,19.48
2018-11-07T08:30:13.505Z,20.23
2018-11-07T08:32:41.958Z,16.30
2018-11-07T08:35:11.722Z,17.05
2018-11-07T08:37:40.750Z,16.57
2018-11-07T08:40:11.350Z,16.53
2018-11-07T08:42:40.126Z,18.60
2018-11-07T08:45:09.357Z,18.02
2018-11-07T08:47:37.793Z,18.73
2018-11-07T08:50:08.785Z,17.10
2018-11-07T08:52:37.158Z,15.97
2018-11-07T08:55:06.852Z,15.65
2018-11-07T08:57:35.206Z,14.83
2018-11-07T09:00:04.367Z,16.67
2018-11-07T09:02:33.318Z,16.77
2018-11-07T09:05:01.744Z,16.07
2018-11-07T09:07:30.647Z,16.17
2018-11-07T09:10:00.200Z,15.50
2018-11-07T09:12:29.501Z,17.67
2018-11-07T09:14:57.991Z,16.93
2018-11-07T09:17:26.661Z,17.70
2018-11-07T09:19:55.099Z,16.67
2018-11-07T09:22:23.801Z,14.93
2018-11-07T09:24:52.248Z,15.87
2018-11-07T09:27:20.973Z,14.40
2018-11-07T09:29:49.992Z,15.35
2018-11-07T09:32:18.833Z,16.03
2018-11-07T09:34:47.530Z,14.53
2018-11-07T09:37:16.318Z,16.53
2018-11-07T09:39:45.096Z,13.90
2018-11-07T09:42:13.989Z,13.97
2018-11-07T09:44:43.190Z,13.47
2018-11-07T09:47:11.689Z,13.65
2018-11-07T09:49:41.140Z,13.78
2018-11-07T09:52:09.593Z,13.97
2018-11-07T09:54:38.078Z,12.50
2018-11-07T09:57:06.707Z,13.80
2018-11-07T09:59:35.259Z,14.00
2018-11-07T10:02:03.554Z,12.45
2018-11-07T10:04:31.964Z,13.90
2018-11-07T10:07:00.411Z,12.03
2018-11-07T10:09:28.940Z,14.03
2018-11-07T10:11:57.360Z,13.57
2018-11-07T10:14:25.840Z,12.40
2018-11-07T10:16:54.408Z,13.90
2018-11-07T10:19:23.152Z,12.60
2018-11-07T10:21:51.933Z,14.20
2018-11-07T10:24:20.458Z,13.88
2018-11-07T10:26:48.946Z,12.43
2018-11-07T10:29:18.061Z,14.40
2018-11-07T10:31:46.748Z,15.97
2018-11-07T10:34:15.208Z,14.73
2018-11-07T10:36:43.857Z,14.63
2018-11-07T10:39:12.505Z,14.90
2018-11-07T10:41:40.923Z,14.97
2018-11-07T10:44:09.404Z,14.73
2018-11-07T10:46:37.964Z,16.60
2018-11-07T10:49:06.707Z,14.87
2018-11-07T10:51:35.259Z,15.03
2018-11-07T10:54:04.736Z,14.90
2018-11-07T10:56:33.297Z,13.07
2018-11-07T10:59:01.965Z,14.43
2018-11-07T11:01:35.702Z,14.13
2018-11-07T11:04:04.134Z,12.20
2018-11-07T11:06:33.113Z,13.67
2018-11-07T11:09:01.538Z,12.18
2018-11-07T11:11:37.082Z,11.90
2018-11-07T11:14:06.044Z,10.47
2018-11-07T11:16:34.448Z,11.40
2018-11-07T11:19:02.832Z,12.15
2018-11-07T11:21:31.246Z,10.80
2018-11-07T11:24:00.613Z,9.60
2018-11-07T11:26:28.992Z,10.07
2018-11-07T11:28:57.456Z,10.07
2018-11-07T11:31:25.919Z,9.20
2018-11-07T11:33:54.468Z,7.00
2018-11-07T11:36:22.809Z,8.40
2018-11-07T11:38:51.304Z,8.80
2018-11-07T11:41:19.882Z,8.80
2018-11-07T11:43:48.224Z,8.63
2018-11-07T11:46:16.693Z,8.53
2018-11-07T11:48:45.823Z,8.27
2018-11-07T11:51:14.279Z,7.50
2018-11-07T11:53:42.650Z,8.53
2018-11-07T11:56:11.184Z,7.67
2018-11-07T11:58:39.834Z,8.08
2018-11-07T12:01:08.926Z,8.43
2018-11-07T12:03:37.415Z,7.72
2018-11-07T12:06:06.149Z,7.20
2018-11-07T12:08:34.767Z,7.20
2018-11-07T12:11:03.308Z,8.20
2018-11-07T12:13:31.874Z,7.97
2018-11-07T12:16:00.602Z,7.47
2018-11-07T12:18:29.033Z,7.20
2018-11-07T12:20:57.498Z,6.97
2018-11-07T12:23:25.868Z,7.73
2018-11-07T12:25:54.667Z,7.00
2018-11-07T12:28:23.080Z,6.60
2018-11-07T12:30:51.498Z,6.20
2018-11-07T12:33:20.170Z,7.50
2018-11-07T12:35:48.655Z,6.53
2018-11-07T12:38:17.083Z,6.57
2018-11-07T12:40:45.464Z,6.87
2018-11-07T12:43:14.032Z,5.97
2018-11-07T12:45:42.539Z,7.50
2018-11-07T12:48:10.972Z,7.83
2018-11-07T12:50:39.671Z,7.80
2018-11-07T12:53:08.076Z,7.40
2018-11-07T12:55:36.475Z,8.97
2018-11-07T12:58:05.174Z,8.07
2018-11-07T13:00:33.434Z,7.30
2018-11-07T13:03:01.952Z,7.70
2018-11-07T13:05:30.286Z,7.33
2018-11-07T13:07:58.953Z,8.10
2018-11-07T13:10:27.331Z,6.75
2018-11-07T13:12:55.817Z,7.50
2018-11-07T13:15:24.235Z,7.43
2018-11-07T13:17:52.921Z,7.92
2018-11-07T13:20:24.617Z,7.67
2018-11-07T13:22:53.702Z,7.40
2018-11-07T13:25:22.590Z,8.17
2018-11-07T13:27:50.973Z,7.90
2018-11-07T13:30:20.528Z,8.03
2018-11-07T13:32:48.943Z,7.40
2018-11-07T13:35:18.010Z,8.00
2018-11-07T13:37:47.418Z,7.78
2018-11-07T13:40:19.136Z,8.00
2018-11-07T13:42:47.614Z,8.00
2018-11-07T13:45:17.246Z,7.67
2018-11-07T13:47:46.774Z,6.65
2018-11-07T13:50:15.764Z,7.03
2018-11-07T13:52:44.317Z,7.10
2018-11-07T13:55:13.539Z,7.90
2018-11-07T13:57:42.164Z,7.97
2018-11-07T14:00:16.391Z,7.47
2018-11-07T14:02:51.946Z,8.13
2018-11-07T14:05:20.469Z,7.90
2018-11-07T14:07:48.769Z,7.10
2018-11-07T14:10:25.828Z,7.83
2018-11-07T14:12:54.598Z,6.80
2018-11-07T14:15:23.037Z,7.33
2018-11-07T14:17:51.679Z,6.92
2018-11-07T14:20:20.470Z,6.97
2018-11-07T14:22:49.078Z,6.80
2018-11-07T14:25:17.579Z,6.22
2018-11-07T14:27:46.104Z,6.20
2018-11-07T14:30:16.798Z,7.28
2018-11-07T14:32:49.528Z,6.87
2018-11-07T14:35:18.276Z,6.93
2018-11-07T14:37:47.123Z,7.37
2018-11-07T14:40:15.622Z,6.10
2018-11-07T14:42:44.107Z,7.40
2018-11-07T14:45:12.824Z,6.15
2018-11-07T14:47:42.034Z,6.87
2018-11-07T14:50:11.244Z,7.25
2018-11-07T14:52:39.723Z,7.15
2018-11-07T14:55:08.778Z,6.97
2018-11-07T14:57:37.482Z,7.60
2018-11-07T15:00:13.270Z,7.70
2018-11-07T15:02:42.804Z,9.73
2018-11-07T15:05:12.284Z,7.90
2018-11-07T15:07:41.580Z,11.03
2018-11-07T15:10:11.109Z,9.50
2018-11-07T15:12:39.633Z,8.80
2018-11-07T15:15:09.825Z,10.30
2018-11-07T15:17:38.605Z,9.60
2018-11-07T15:20:07.712Z,10.50
2018-11-07T15:22:36.177Z,9.18
2018-11-07T15:25:05.572Z,10.60
2018-11-07T15:27:33.904Z,9.83
2018-11-07T15:30:02.327Z,9.07
2018-11-07T15:32:30.852Z,10.73
2018-11-07T15:34:59.354Z,10.60
2018-11-07T15:37:27.880Z,10.40
2018-11-07T15:39:56.288Z,10.30
2018-11-07T15:42:24.714Z,11.30
2018-11-07T15:44:53.104Z,9.97
2018-11-07T15:47:21.573Z,10.57
2018-11-07T15:49:55.401Z,9.60
2018-11-07T15:52:23.833Z,10.27
2018-11-07T15:54:52.222Z,10.00
2018-11-07T15:57:20.625Z,9.27
2018-11-07T15:59:49.100Z,9.37
2018-11-07T16:02:17.549Z,9.30
2018-11-07T16:04:46.049Z,11.20
2018-11-07T16:07:14.488Z,10.55
2018-11-07T16:09:42.875Z,12.80
2018-11-07T16:12:11.286Z,14.10
2018-11-07T16:14:39.776Z,15.03
2018-11-07T16:17:08.211Z,12.28
2018-11-07T16:19:36.657Z,13.87
2018-11-07T16:22:05.619Z,17.77
2018-11-07T16:24:33.975Z,14.13
2018-11-07T16:27:02.442Z,15.28
2018-11-07T16:29:30.937Z,16.47
2018-11-07T16:31:59.367Z,13.93
2018-11-07T16:34:27.881Z,12.10
2018-11-07T16:36:56.332Z,12.20
2018-11-07T16:39:25.454Z,9.93
2018-11-07T16:41:53.893Z,9.87
2018-11-07T16:44:22.268Z,9.93
2018-11-07T16:46:50.659Z,15.80
2018-11-07T16:49:19.134Z,10.50
2018-11-07T16:51:47.587Z,10.00
2018-11-07T16:54:18.839Z,9.40
2018-11-07T16:56:47.237Z,9.10
2018-11-07T16:59:15.703Z,7.90
2018-11-07T17:01:44.077Z,8.33
2018-11-07T17:04:12.977Z,8.55
2018-11-07T17:06:41.625Z,6.67
2018-11-07T17:09:11.220Z,6.95
2018-11-07T17:11:40.113Z,6.95
2018-11-07T17:14:08.632Z,7.33
2018-11-07T17:16:37.088Z,7.10
2018-11-07T17:19:05.523Z,6.73
2018-11-07T17:21:33.982Z,6.53
2018-11-07T17:24:03.250Z,6.80
2018-11-07T17:26:31.690Z,5.95
2018-11-07T17:29:00.299Z,5.67
2018-11-07T17:31:28.787Z,6.30
2018-11-07T17:33:57.249Z,5.93
2018-11-07T17:36:25.716Z,5.10
2018-11-07T17:38:54.163Z,7.97
2018-11-07T17:41:22.605Z,9.60
2018-11-07T17:43:51.035Z,9.23
2018-11-07T17:46:19.565Z,11.17
2018-11-07T17:48:48.104Z,10.33
2018-11-07T17:51:17.524Z,14.27
2018-11-07T17:53:45.927Z,12.60
2018-11-07T17:56:15.160Z,12.30
2018-11-07T17:58:43.602Z,15.20
2018-11-07T18:01:12.021Z,17.00
2018-11-07T18:03:40.459Z,11.90
2018-11-07T18:06:09.501Z,9.87
2018-11-07T18:08:38.008Z,8.90
2018-11-07T18:11:06.375Z,7.83
2018-11-07T18:13:38.256Z,9.30
2018-11-07T18:16:06.687Z,8.40
2018-11-07T18:18:35.098Z,7.00
2018-11-07T18:21:03.485Z,7.10
2018-11-07T18:23:31.994Z,7.23
2018-11-07T18:26:00.377Z,6.67
2018-11-07T18:28:29.069Z,7.83
2018-11-07T18:30:57.428Z,10.47
2018-11-07T18:33:25.880Z,9.27
2018-11-07T18:35:54.276Z,9.63
2018-11-07T18:38:23.045Z,9.83
2018-11-07T18:40:53.625Z,7.20
2018-11-07T18:43:22.269Z,8.30
2018-11-07T18:45:50.854Z,7.85
2018-11-07T18:48:19.779Z,11.03
2018-11-07T18:50:49.044Z,7.28
2018-11-07T18:53:18.258Z,7.83
2018-11-07T18:55:47.256Z,7.72
2018-11-07T18:58:16.217Z,7.83
2018-11-07T19:00:46.028Z,7.03
2018-11-07T19:03:15.254Z,7.53
2018-11-07T19:05:45.402Z,8.28
2018-11-07T19:08:14.531Z,7.57
2018-11-07T19:10:44.642Z,7.83
2018-11-07T19:13:13.806Z,7.80
2018-11-07T19:15:43.256Z,7.97
2018-11-07T19:18:12.166Z,8.48
2018-11-07T19:20:41.281Z,8.20
2018-11-07T19:23:10.283Z,8.93
2018-11-07T19:25:38.716Z,7.70
2018-11-07T19:28:07.593Z,7.90
2018-11-07T19:30:36.515Z,8.13
2018-11-07T19:33:05.450Z,7.10
2018-11-07T19:35:34.221Z,7.35
2018-11-07T19:38:04.068Z,8.10
2018-11-07T19:40:32.618Z,7.85
2018-11-07T19:43:01.148Z,8.40
2018-11-07T19:45:29.702Z,8.45
2018-11-07T19:47:58.176Z,8.80
2018-11-07T19:50:26.655Z,7.90
2018-11-07T19:52:55.154Z,8.60
2018-11-07T19:58:25.801Z,8.33
2018-11-07T20:00:54.330Z,8.50
2018-11-07T20:03:22.792Z,8.10
2018-11-07T20:05:51.458Z,7.53
2018-11-07T20:08:19.933Z,7.97
2018-11-07T20:10:48.380Z,8.00
2018-11-07T20:13:16.861Z,6.80
2018-11-07T20:15:45.344Z,7.80
2018-11-07T20:18:13.849Z,8.37
2018-11-07T20:20:42.305Z,6.58
2018-11-07T20:23:10.874Z,8.50
2018-11-07T20:25:39.872Z,9.33
2018-11-07T20:28:10.572Z,12.40
2018-11-07T20:30:39.078Z,10.63
2018-11-07T20:33:07.860Z,10.97
2018-11-07T20:35:36.344Z,10.47
2018-11-07T20:38:04.972Z,9.60
2018-11-07T20:40:33.440Z,8.83
2018-11-07T20:43:01.991Z,8.70
2018-11-07T20:45:30.434Z,7.63
2018-11-07T20:47:58.868Z,7.37
2018-11-07T20:50:27.329Z,8.37
2018-11-07T20:52:56.416Z,8.17
2018-11-07T20:55:24.879Z,7.60
2018-11-07T20:57:53.311Z,9.60
2018-11-07T21:00:22.783Z,9.58
2018-11-07T21:02:51.368Z,9.00
2018-11-07T21:05:19.901Z,10.03
2018-11-07T21:07:48.519Z,9.77
2018-11-07T21:10:19.111Z,9.30
2018-11-07T21:12:47.961Z,10.40
2018-11-07T21:15:17.601Z,8.60
2018-11-07T21:17:46.263Z,10.00
2018-11-07T21:20:14.679Z,9.93
2018-11-07T21:22:43.376Z,9.37
2018-11-07T21:25:12.148Z,9.90
2018-11-07T21:27:40.836Z,8.75
2018-11-07T21:30:10.758Z,8.28
2018-11-07T21:32:39.322Z,8.50
2018-11-07T21:35:08.221Z,9.83
2018-11-07T21:37:37.054Z,8.25
2018-11-07T21:40:07.728Z,8.90
2018-11-07T21:42:36.120Z,8.57
2018-11-07T21:45:04.970Z,9.03
2018-11-07T21:47:35.194Z,8.47
2018-11-07T21:50:03.822Z,8.98
2018-11-07T21:52:32.273Z,8.70
2018-11-07T21:55:01.043Z,8.60
2018-11-07T21:57:29.531Z,9.07
2018-11-07T21:59:57.919Z,8.23
2018-11-07T22:02:26.344Z,7.90
2018-11-07T22:04:54.762Z,8.00
2018-11-07T22:07:23.153Z,7.72
2018-11-07T22:09:51.541Z,6.73
2018-11-07T22:12:20.009Z,8.30
2018-11-07T22:14:48.436Z,8.17
2018-11-07T22:17:19.484Z,7.62
2018-11-07T22:19:48.112Z,9.30
2018-11-07T22:22:16.513Z,7.23
2018-11-07T22:24:44.878Z,7.83
2018-11-07T22:27:13.329Z,7.77
2018-11-07T22:29:42.654Z,8.10
2018-11-07T22:32:11.124Z,7.27
2018-11-07T22:34:39.544Z,7.57
2018-11-07T22:37:07.975Z,7.35
2018-11-07T22:39:36.369Z,7.53
2018-11-07T22:42:05.159Z,7.17
2018-11-07T22:44:33.612Z,7.22
2018-11-07T22:47:02.103Z,8.03
2018-11-07T22:49:30.544Z,7.45
2018-11-07T22:51:58.938Z,6.30
2018-11-07T22:54:27.332Z,7.97
2018-11-07T22:56:55.787Z,7.10
2018-11-07T22:59:24.190Z,8.18
2018-11-07T23:01:52.636Z,8.63
2018-11-07T23:04:21.529Z,7.78
2018-11-07T23:06:50.040Z,8.20
2018-11-07T23:09:18.432Z,8.53
2018-11-07T23:11:46.985Z,9.63
2018-11-07T23:14:15.922Z,9.73
2018-11-07T23:16:44.397Z,10.50
2018-11-07T23:19:12.984Z,10.08
2018-11-07T23:21:41.325Z,10.03
2018-11-07T23:24:09.803Z,10.20
2018-11-07T23:26:38.176Z,9.10
2018-11-07T23:29:06.584Z,9.15
2018-11-07T23:31:35.160Z,9.60
2018-11-07T23:34:04.624Z,9.50
2018-11-07T23:36:41.280Z,9.73
2018-11-07T23:39:13.325Z,8.88
2018-11-07T23:41:41.998Z,10.17
2018-11-07T23:44:10.561Z,10.70
2018-11-07T23:46:39.152Z,9.70
2018-11-07T23:49:07.551Z,9.75
2018-11-07T23:51:40.564Z,9.80
2018-11-07T23:54:09.746Z,9.83
2018-11-07T23:56:38.143Z,9.80
2018-11-07T23:59:06.668Z,11.00
